Time;durP1;ratioP1;P1;durP2;ratioP2;P2;SDS_P1;SDS_P2;PMS_P1;PMS_P2;Temp;Humidity;BMP_temperature;BMP_pressure;BME280_temperature;BME280_humidity;BME280_pressure;Samples;Min_cycle;Max_cycle;Signal;HPM_P1;HPM_P2
2021/01/28 00:01:59;;;;;;;115.12;51.90;;;;;;;-1.90;78.51;97672.59;1789891;80;20980;-73
2021/01/28 00:04:25;;;;;;;110.72;50.17;;;;;;;-1.90;78.83;97675.25;1789920;79;21039;-74
2021/01/28 00:06:52;;;;;;;102.47;44.42;;;;;;;-1.87;78.99;97669.55;1790000;79;21090;-73
2021/01/28 00:09:18;;;;;;;100.50;43.68;;;;;;;-1.91;78.82;97671.48;1789995;80;22088;-73
2021/01/28 00:11:44;;;;;;;96.28;46.40;;;;;;;-1.94;78.97;97663.95;1789718;79;21186;-73
2021/01/28 00:14:10;;;;;;;103.62;47.30;;;;;;;-1.90;78.73;97669.94;1789915;80;21011;-73
2021/01/28 00:16:36;;;;;;;117.47;51.68;;;;;;;-2.08;79.69;97663.96;1789868;79;21161;-73
2021/01/28 00:19:03;;;;;;;115.80;49.35;;;;;;;-2.02;79.31;97659.16;1789968;80;21400;-74
2021/01/28 00:21:29;;;;;;;101.25;45.03;;;;;;;-2.04;79.45;97651.11;1789966;80;22038;-74
2021/01/28 00:23:55;;;;;;;110.60;46.75;;;;;;;-2.03;78.54;97645.58;1789814;80;21046;-73
2021/01/28 00:26:21;;;;;;;102.30;44.13;;;;;;;-2.06;78.23;97643.32;1789987;80;21150;-73
2021/01/28 00:28:48;;;;;;;103.70;46.05;;;;;;;-2.06;78.14;97643.32;1789817;79;21146;-73
2021/01/28 00:31:14;;;;;;;106.20;45.80;;;;;;;-2.02;78.45;97637.10;1789956;80;21158;-73
2021/01/28 00:33:40;;;;;;;96.00;45.50;;;;;;;-1.97;78.51;97640.44;1789845;79;21191;-73
2021/01/28 00:36:07;;;;;;;103.30;45.75;;;;;;;-1.95;78.90;97633.92;1789836;80;21122;-73
2021/01/28 00:38:35;;;;;;;105.30;44.98;;;;;;;-1.91;78.98;97636.45;1789955;79;21425;-73
2021/01/28 00:41:05;;;;;;;112.08;49.23;;;;;;;-1.85;78.87;97633.48;1790113;79;21526;-73
2021/01/28 00:43:31;;;;;;;117.60;55.98;;;;;;;-1.89;78.64;97634.91;1789850;79;21107;-74
2021/01/28 00:45:58;;;;;;;120.37;54.03;;;;;;;-1.89;78.95;97637.56;1789864;80;21142;-73
2021/01/28 00:48:26;;;;;;;115.25;56.30;;;;;;;-1.87;78.71;97640.33;1789890;79;21047;-74
2021/01/28 00:50:53;;;;;;;121.70;52.10;;;;;;;-1.83;78.78;97635.40;1789875;79;21111;-74
2021/01/28 00:53:20;;;;;;;118.72;50.75;;;;;;;-1.84;78.56;97639.90;1789793;80;21475;-73
2021/01/28 00:55:46;;;;;;;114.10;46.05;;;;;;;-1.84;78.66;97631.12;1789892;79;21149;-73
2021/01/28 00:58:14;;;;;;;114.80;52.60;;;;;;;-1.81;78.35;97628.03;1789841;80;21208;-73
2021/01/28 01:00:42;;;;;;;112.67;48.87;;;;;;;-1.81;77.88;97630.17;1790114;80;20967;-73
2021/01/28 01:03:09;;;;;;;119.80;49.00;;;;;;;-1.79;78.09;97629.98;1790077;79;21923;-73
2021/01/28 01:05:38;;;;;;;111.12;53.65;;;;;;;-1.75;78.24;97627.20;1789862;80;21102;-73
2021/01/28 01:08:07;;;;;;;96.02;45.52;;;;;;;-1.75;77.85;97621.88;1761607;80;21051;-73
2021/01/28 01:10:44;;;;;;;107.97;48.55;;;;;;;-1.74;77.39;97619.02;1789763;80;21255;-73
2021/01/28 01:13:17;;;;;;;85.83;41.33;;;;;;;-1.82;77.58;97619.77;1821518;78;21435;-74
2021/01/28 01:15:44;;;;;;;97.60;44.25;;;;;;;-1.82;77.46;97613.13;1789968;80;21094;-73
2021/01/28 01:18:11;;;;;;;96.57;40.15;;;;;;;-1.86;77.36;97608.76;1789889;80;21190;-74
2021/01/28 01:20:38;;;;;;;82.60;39.60;;;;;;;-1.87;77.34;97612.44;1789869;80;21102;-74
2021/01/28 01:23:04;;;;;;;79.87;34.55;;;;;;;-1.89;77.24;97609.16;1789786;80;21257;-74
2021/01/28 01:25:30;;;;;;;96.50;44.03;;;;;;;-1.86;77.17;97605.28;1789790;80;21126;-73
2021/01/28 01:27:56;;;;;;;102.27;45.10;;;;;;;-1.90;76.96;97596.91;1789837;80;21031;-73
2021/01/28 01:30:23;;;;;;;104.15;47.95;;;;;;;-1.92;77.01;97595.49;1789852;79;21558;-73
2021/01/28 01:32:50;;;;;;;99.58;46.70;;;;;;;-1.95;77.82;97597.25;1789889;80;21459;-73
2021/01/28 01:35:18;;;;;;;102.22;46.05;;;;;;;-1.97;78.27;97588.66;1789833;80;21191;-73
2021/01/28 01:37:44;;;;;;;97.45;43.35;;;;;;;-1.99;77.67;97591.02;1789744;80;21034;-73
2021/01/28 01:40:15;;;;;;;101.35;41.65;;;;;;;-1.99;77.65;97590.20;1789826;79;21118;-73
2021/01/28 01:42:46;;;;;;;93.25;41.85;;;;;;;-2.00;77.71;97583.27;1789833;80;21135;-73
2021/01/28 01:45:13;;;;;;;93.33;43.48;;;;;;;-2.08;77.34;97579.52;1788704;80;21090;-74
2021/01/28 01:47:50;;;;;;;91.50;40.10;;;;;;;-2.15;77.53;97574.22;1789840;79;21259;-74
2021/01/28 01:50:51;;;;;;;93.60;42.93;;;;;;;-2.20;77.96;97577.22;1789773;80;21116;-74
2021/01/28 01:53:31;;;;;;;94.17;40.83;;;;;;;-2.24;77.65;97577.31;1789848;79;21169;-74
2021/01/28 01:56:12;;;;;;;86.12;41.02;;;;;;;-2.35;77.63;97572.96;1789948;80;21086;-73
2021/01/28 01:59:08;;;;;;;84.40;43.25;;;;;;;-2.42;77.22;97572.67;1789997;80;21134;-74
2021/01/28 02:01:38;;;;;;;92.15;38.92;;;;;;;-2.46;77.26;97572.80;1757047;80;21208;-74
2021/01/28 02:04:06;;;;;;;92.40;41.20;;;;;;;-2.65;77.00;97567.33;1789964;80;21047;-74
2021/01/28 02:06:54;;;;;;;90.47;41.37;;;;;;;-2.85;78.79;97570.48;1761705;80;21097;-73
2021/01/28 02:09:20;;;;;;;95.92;42.15;;;;;;;-2.96;79.16;97564.49;1790035;80;21094;-74
2021/01/28 02:11:47;;;;;;;88.35;41.28;;;;;;;-2.99;78.27;97563.07;1789948;79;21181;-74
2021/01/28 02:14:15;;;;;;;97.72;43.60;;;;;;;-3.00;78.58;97561.92;1789957;79;21146;-73
2021/01/28 02:16:57;;;;;;;100.65;44.23;;;;;;;-3.05;78.48;97558.58;1789954;80;21135;-73
2021/01/28 02:19:53;;;;;;;118.25;50.15;;;;;;;-3.07;78.34;97571.73;1790030;80;21078;-74
2021/01/28 02:23:00;;;;;;;101.55;43.45;;;;;;;-3.17;79.23;97567.63;1789973;79;21484;-75
2021/01/28 02:25:30;;;;;;;98.45;44.35;;;;;;;-3.19;78.75;97570.19;1789926;80;21130;-74
2021/01/28 02:28:02;;;;;;;109.27;48.23;;;;;;;-3.41;79.41;97563.77;1789921;80;21198;-74
2021/01/28 02:30:29;;;;;;;108.12;46.20;;;;;;;-3.45;79.15;97567.81;1760860;80;21530;-74
2021/01/28 02:32:55;;;;;;;106.35;46.68;;;;;;;-3.58;80.12;97564.34;1789859;79;21022;-74
2021/01/28 02:35:24;;;;;;;103.05;43.58;;;;;;;-3.62;79.43;97567.07;1790070;80;21543;-74
2021/01/28 02:37:50;;;;;;;111.80;52.00;;;;;;;-3.69;78.80;97569.19;1790191;79;21532;-74
2021/01/28 02:40:20;;;;;;;110.40;48.83;;;;;;;-3.82;79.71;97567.84;1789954;80;21187;-74
2021/01/28 02:42:46;;;;;;;108.45;44.20;;;;;;;-3.79;79.13;97563.97;1789925;80;21443;-73
2021/01/28 02:45:24;;;;;;;102.25;44.35;;;;;;;-3.81;79.87;97562.04;1761097;80;21109;-73
2021/01/28 02:47:58;;;;;;;75.25;34.63;;;;;;;-3.88;79.85;97558.04;1790124;80;21117;-74
2021/01/28 02:50:26;;;;;;;95.90;43.10;;;;;;;-4.01;79.62;97557.50;1788455;80;21094;-74
2021/01/28 02:52:54;;;;;;;86.12;40.95;;;;;;;-4.05;80.08;97554.11;1789884;80;21208;-73
2021/01/28 02:55:20;;;;;;;111.50;46.67;;;;;;;-4.05;79.44;97552.28;1790283;79;21106;-73
2021/01/28 02:57:46;;;;;;;68.47;31.37;;;;;;;-3.99;79.46;97544.06;1789868;80;21031;-73
2021/01/28 03:00:16;;;;;;;109.07;48.02;;;;;;;-3.93;80.05;97537.14;1789958;80;21601;-73
2021/01/28 03:02:42;;;;;;;54.98;26.77;;;;;;;-3.95;79.96;97539.17;1789942;79;21007;-73
2021/01/28 03:05:09;;;;;;;94.40;44.20;;;;;;;-3.91;79.89;97537.78;1790021;79;22014;-73
2021/01/28 03:07:35;;;;;;;92.45;42.30;;;;;;;-4.05;80.16;97536.41;1789854;80;21153;-73
2021/01/28 03:10:04;;;;;;;91.35;41.18;;;;;;;-4.12;80.44;97532.91;1789909;80;21079;-73
2021/01/28 03:12:30;;;;;;;88.15;38.13;;;;;;;-4.23;79.97;97529.52;1789395;80;21122;-74
2021/01/28 03:14:57;;;;;;;84.03;38.85;;;;;;;-4.36;80.05;97521.04;1784117;80;21015;-74
2021/01/28 03:17:23;;;;;;;88.30;39.70;;;;;;;-4.49;79.67;97526.77;1784063;80;21204;-74
2021/01/28 03:19:50;;;;;;;92.85;36.05;;;;;;;-4.65;80.09;97519.45;1784116;80;21095;-74
2021/01/28 03:22:16;;;;;;;91.02;43.68;;;;;;;-4.79;80.42;97528.31;1784092;80;21126;-74
2021/01/28 03:24:42;;;;;;;92.88;42.30;;;;;;;-4.75;80.51;97530.08;1784049;80;21523;-74
2021/01/28 03:27:08;;;;;;;96.30;39.13;;;;;;;-4.80;80.98;97531.16;1784219;80;21579;-74
2021/01/28 03:29:34;;;;;;;91.15;36.93;;;;;;;-4.89;80.59;97539.73;1784039;80;21210;-74
2021/01/28 03:32:00;;;;;;;75.05;35.52;;;;;;;-4.97;80.19;97538.56;1783994;80;21186;-74
2021/01/28 03:34:26;;;;;;;86.02;34.75;;;;;;;-5.11;79.97;97535.03;1784043;80;21134;-74
2021/01/28 03:36:52;;;;;;;86.60;35.45;;;;;;;-5.17;79.99;97535.79;1784149;80;21527;-74
2021/01/28 03:39:19;;;;;;;83.52;37.53;;;;;;;-5.23;79.74;97524.15;1784157;80;21083;-74
2021/01/28 03:41:45;;;;;;;74.97;34.33;;;;;;;-5.25;79.73;97528.81;1784093;80;21532;-74
2021/01/28 03:44:11;;;;;;;90.50;35.15;;;;;;;-5.33;79.38;97532.91;1783969;80;21118;-74
2021/01/28 03:46:37;;;;;;;74.62;35.40;;;;;;;-5.34;80.09;97526.00;1784182;80;21574;-74
2021/01/28 03:49:03;;;;;;;81.87;38.13;;;;;;;-5.34;80.55;97523.87;1784103;80;21012;-74
2021/01/28 03:51:29;;;;;;;85.15;39.53;;;;;;;-5.32;80.63;97528.45;1784109;80;21536;-74
2021/01/28 03:53:56;;;;;;;76.72;35.95;;;;;;;-5.23;80.33;97528.11;1784023;80;21270;-74
2021/01/28 03:56:22;;;;;;;76.25;35.20;;;;;;;-5.27;80.72;97514.98;1784049;80;21126;-74
2021/01/28 03:58:48;;;;;;;76.45;31.73;;;;;;;-5.35;81.54;97513.00;1784011;80;21512;-74
2021/01/28 04:01:14;;;;;;;68.12;30.80;;;;;;;-5.28;81.20;97513.87;1784047;80;21142;-74
2021/01/28 04:03:40;;;;;;;63.58;29.87;;;;;;;-5.34;80.80;97497.45;1784071;80;21079;-74
2021/01/28 04:06:07;;;;;;;66.75;29.75;;;;;;;-5.42;80.38;97499.22;1784067;80;21210;-74
2021/01/28 04:08:33;;;;;;;70.78;31.30;;;;;;;-5.53;80.29;97504.22;1783955;80;21432;-74
2021/01/28 04:10:59;;;;;;;68.30;30.90;;;;;;;-5.64;79.88;97504.70;1784144;80;21150;-74
2021/01/28 04:13:25;;;;;;;57.75;28.07;;;;;;;-5.72;79.52;97509.14;1783893;80;21412;-74
2021/01/28 04:15:51;;;;;;;60.63;27.02;;;;;;;-5.77;79.34;97513.34;1784092;80;21515;-74
2021/01/28 04:18:19;;;;;;;66.07;29.32;;;;;;;-5.87;79.33;97508.37;1784110;80;21245;-74
2021/01/28 04:20:45;;;;;;;60.55;26.05;;;;;;;-5.99;79.21;97500.66;1783987;80;21074;-74
2021/01/28 04:23:12;;;;;;;60.08;26.23;;;;;;;-6.07;79.47;97496.31;1783993;80;21070;-74
2021/01/28 04:25:38;;;;;;;49.08;24.55;;;;;;;-6.18;79.52;97494.67;1784055;80;21207;-74
2021/01/28 04:28:04;;;;;;;107.25;47.88;;;;;;;-6.27;79.70;97496.11;1784097;80;21543;-74
2021/01/28 04:30:32;;;;;;;106.17;48.52;;;;;;;-6.27;80.73;97492.66;1784061;80;21134;-74
2021/01/28 04:32:59;;;;;;;195.50;73.95;;;;;;;-6.24;80.40;97497.55;1753367;80;21487;-74
2021/01/28 04:35:25;;;;;;;158.20;59.70;;;;;;;-6.27;79.84;97499.25;1784036;80;21134;-74
2021/01/28 04:37:51;;;;;;;212.80;73.67;;;;;;;-6.38;79.50;97489.19;1783979;80;21155;-74
2021/01/28 04:40:41;;;;;;;187.03;62.35;;;;;;;-6.50;78.89;97485.37;1784160;80;21118;-74
2021/01/28 04:43:24;;;;;;;92.90;37.65;;;;;;;-6.54;79.30;97487.58;1784006;80;21259;-74
2021/01/28 04:45:51;;;;;;;91.37;36.25;;;;;;;-6.56;79.39;97484.31;1784174;80;21491;-74
2021/01/28 04:48:17;;;;;;;100.70;38.88;;;;;;;-6.72;79.81;97476.61;1783980;80;21062;-73
2021/01/28 04:50:43;;;;;;;97.10;38.55;;;;;;;-6.78;80.19;97482.10;1784047;80;21590;-73
2021/01/28 04:53:26;;;;;;;97.57;36.60;;;;;;;-6.70;80.26;97485.14;1784047;80;21225;-73
2021/01/28 04:55:54;;;;;;;112.95;45.60;;;;;;;-6.74;79.45;97478.12;1784040;80;21206;-73
2021/01/28 04:58:20;;;;;;;95.22;40.03;;;;;;;-6.84;80.26;97475.73;1784013;80;21067;-73
2021/01/28 05:00:47;;;;;;;99.30;38.98;;;;;;;-6.83;79.52;97472.63;1784024;80;21162;-73
2021/01/28 05:03:29;;;;;;;118.10;44.75;;;;;;;-6.87;79.10;97478.75;1753273;80;21167;-73
2021/01/28 05:05:56;;;;;;;107.20;45.88;;;;;;;-7.12;78.37;97472.94;1784070;80;21059;-74
2021/01/28 05:08:22;;;;;;;109.45;41.95;;;;;;;-7.11;78.46;97459.27;1783960;80;21261;-73
2021/01/28 05:10:51;;;;;;;110.90;40.80;;;;;;;-7.18;78.00;97464.47;1783988;80;21550;-73
2021/01/28 05:13:32;;;;;;;95.57;40.58;;;;;;;-7.24;78.13;97461.73;1784092;80;21193;-73
2021/01/28 05:16:19;;;;;;;135.25;51.55;;;;;;;-7.40;78.03;97470.61;1775751;80;21126;-74
2021/01/28 05:18:59;;;;;;;133.75;49.80;;;;;;;-7.42;77.92;97468.16;1784127;80;21420;-74
2021/01/28 05:21:29;;;;;;;138.20;52.88;;;;;;;-7.42;78.08;97464.71;1783652;80;22113;-75
2021/01/28 05:24:09;;;;;;;127.85;47.65;;;;;;;-7.48;78.17;97462.28;1783993;80;21035;-74
2021/01/28 05:26:42;;;;;;;133.93;47.65;;;;;;;-7.47;78.60;97466.55;1783039;80;21126;-74
2021/01/28 05:29:28;;;;;;;102.45;40.85;;;;;;;-7.47;78.78;97463.92;1783976;80;21550;-74
2021/01/28 05:32:00;;;;;;;215.35;80.10;;;;;;;-7.43;78.42;97467.03;1757624;80;21074;-74
2021/01/28 05:34:29;;;;;;;185.50;70.90;;;;;;;-7.60;77.95;97464.23;1784091;80;21255;-74
2021/01/28 05:37:05;;;;;;;158.35;59.18;;;;;;;-7.72;78.23;97469.08;1784187;80;21118;-74
2021/01/28 05:39:35;;;;;;;120.20;47.60;;;;;;;-7.74;78.89;97469.27;1784230;80;21126;-74
2021/01/28 05:42:26;;;;;;;134.87;51.18;;;;;;;-7.71;79.19;97461.51;1753790;80;21111;-74
2021/01/28 05:44:53;;;;;;;150.27;60.92;;;;;;;-7.74;78.16;97457.92;1783242;80;21397;-74
2021/01/28 05:47:33;;;;;;;79.72;36.40;;;;;;;-7.81;77.82;97444.66;1784201;80;21255;-73
2021/01/28 05:50:21;;;;;;;70.28;30.88;;;;;;;-7.86;77.69;97445.70;1784189;80;21476;-74
2021/01/28 05:52:47;;;;;;;124.20;53.52;;;;;;;-7.97;77.57;97440.34;1784239;80;21449;-74
2021/01/28 05:58:12;;;;;;;116.25;44.88;;;;;;;-8.05;78.02;97427.27;1887215;76;27998;-74
2021/01/28 06:01:01;;;;;;;78.02;30.27;;;;;;;-8.12;78.10;97434.72;1827379;78;20924;-75
2021/01/28 06:03:33;;;;;;;;;;;;;;;-8.15;78.04;97435.08;1830000;77;21212;-74
2021/01/28 06:06:43;;;;;;;76.50;29.60;;;;;;;-8.21;78.08;97433.95;1827285;78;20258;-75
2021/01/28 06:09:33;;;;;;;96.85;39.00;;;;;;;-8.19;78.68;97432.00;1826664;77;20951;-75
2021/01/28 06:12:25;;;;;;;95.83;40.88;;;;;;;-7.95;79.71;97425.70;1827329;78;21039;-74
2021/01/28 06:15:24;;;;;;;91.20;37.35;;;;;;;-7.78;78.77;97431.14;1827388;77;21459;-75
2021/01/28 06:18:24;;;;;;;92.97;39.58;;;;;;;-7.93;76.05;97430.81;1827175;77;21554;-73
2021/01/28 06:21:19;;;;;;;83.15;36.83;;;;;;;-8.04;77.01;97441.23;1826885;78;20987;-74
2021/01/28 06:23:54;;;;;;;90.72;38.83;;;;;;;-8.17;76.21;97447.09;1826902;77;21038;-74
2021/01/28 06:26:48;;;;;;;97.57;44.23;;;;;;;-8.41;76.47;97444.66;1824857;78;21501;-73
2021/01/28 06:29:48;;;;;;;93.47;36.93;;;;;;;-8.44;77.28;97441.89;1827328;77;21027;-74
2021/01/28 06:32:43;;;;;;;98.03;42.08;;;;;;;-8.43;77.60;97433.50;1827396;78;21195;-75
2021/01/28 06:35:23;;;;;;;83.92;36.35;;;;;;;-8.52;77.78;97429.30;1827214;77;21498;-74
2021/01/28 06:37:58;;;;;;;96.97;37.90;;;;;;;-8.50;77.26;97426.80;1827241;77;21129;-74
2021/01/28 06:40:30;;;;;;;98.87;43.90;;;;;;;-8.55;77.21;97414.17;1827351;78;21478;-75
2021/01/28 06:43:04;;;;;;;89.58;46.50;;;;;;;-8.61;77.29;97409.64;1827264;77;21403;-75
2021/01/28 06:45:34;;;;;;;95.95;39.35;;;;;;;-8.60;77.78;97408.64;1827410;78;21194;-74
2021/01/28 06:48:13;;;;;;;98.47;41.48;;;;;;;-8.57;77.20;97408.28;1827172;77;21125;-74
2021/01/28 06:50:51;;;;;;;84.83;35.80;;;;;;;-8.58;77.10;97404.52;1827331;78;21106;-75
2021/01/28 06:53:26;;;;;;;171.90;58.23;;;;;;;-8.49;77.45;97405.28;1827173;77;21035;-74
2021/01/28 06:56:13;;;;;;;234.20;81.33;;;;;;;-8.44;78.37;97410.35;1827524;78;21087;-74
2021/01/28 06:59:03;;;;;;;115.70;46.20;;;;;;;-8.43;77.38;97417.23;1827399;77;22019;-74
2021/01/28 07:01:40;;;;;;;90.80;40.48;;;;;;;-8.39;77.16;97412.44;1827192;78;21078;-74
2021/01/28 07:04:30;;;;;;;99.80;40.45;;;;;;;-8.45;77.25;97411.84;1827181;76;28153;-74
2021/01/28 07:07:16;;;;;;;83.12;36.58;;;;;;;-8.51;77.51;97410.72;1785488;80;21114;-74
2021/01/28 07:10:08;;;;;;;150.65;58.60;;;;;;;-8.46;76.87;97412.31;1785936;79;21198;-75
2021/01/28 07:12:44;;;;;;;192.20;78.67;;;;;;;-8.45;77.33;97407.91;1785831;79;21035;-74
2021/01/28 07:15:12;;;;;;;125.70;46.73;;;;;;;-8.45;77.50;97403.46;1785989;79;20948;-75
2021/01/28 07:17:53;;;;;;;138.30;60.28;;;;;;;-8.34;77.20;97403.52;1755761;80;20988;-74
2021/01/28 07:20:39;;;;;;;130.75;50.00;;;;;;;-8.44;76.88;97401.16;1785940;80;21064;-75
2021/01/28 07:23:28;;;;;;;131.47;53.68;;;;;;;-8.43;77.43;97395.40;1785828;79;21091;-73
2021/01/28 07:26:10;;;;;;;;;;;;;;;-8.31;78.76;97384.75;1788441;80;21094;-75
2021/01/28 07:28:47;;;;;;;175.65;71.53;;;;;;;-8.04;78.87;97368.41;1834116;76;28043;-75
2021/01/28 07:31:21;;;;;;;158.32;61.13;;;;;;;-7.89;78.23;97365.00;1785918;80;21448;-75
2021/01/28 07:33:58;;;;;;;95.77;37.55;;;;;;;-7.69;78.58;97352.48;1785917;79;21914;-76
2021/01/28 07:36:30;;;;;;;132.22;57.48;;;;;;;-7.46;78.15;97355.50;1782535;80;21077;-74
2021/01/28 07:38:58;;;;;;;87.55;38.63;;;;;;;-7.35;77.98;97348.95;1785902;79;20889;-75
2021/01/28 07:41:40;;;;;;;31.75;17.50;;;;;;;-7.23;77.62;97346.19;1785952;80;20956;-74
2021/01/28 07:44:37;;;;;;;54.63;26.73;;;;;;;-7.02;77.18;97338.33;1786025;79;21570;-75
2021/01/28 07:47:05;;;;;;;113.35;53.20;;;;;;;-6.94;76.84;97325.55;1785929;80;22089;-74
2021/01/28 07:49:32;;;;;;;96.82;43.00;;;;;;;-6.84;76.98;97323.42;1785942;79;20972;-74
2021/01/28 07:52:04;;;;;;;147.70;75.05;;;;;;;-6.73;76.81;97312.92;1785828;80;21126;-74
2021/01/28 07:54:35;;;;;;;269.07;105.90;;;;;;;-6.71;77.50;97309.59;1785892;79;21102;-74
2021/01/28 07:57:09;;;;;;;272.27;103.83;;;;;;;-6.57;77.33;97314.80;1785869;79;21083;-74
2021/01/28 08:00:07;;;;;;;273.75;109.05;;;;;;;-6.65;76.78;97317.56;1756534;80;21994;-74
2021/01/28 08:02:36;;;;;;;304.35;123.38;;;;;;;-6.60;77.23;97316.98;1785891;79;21039;-74
2021/01/28 08:05:07;;;;;;;262.60;115.28;;;;;;;-6.56;76.96;97311.16;1785650;79;21022;-74
2021/01/28 08:07:46;;;;;;;161.25;76.72;;;;;;;-6.51;76.79;97303.17;1785828;80;21039;-75
2021/01/28 08:10:29;;;;;;;143.10;64.95;;;;;;;-6.45;76.73;97291.38;1785891;80;21098;-74
2021/01/28 08:13:04;;;;;;;122.45;62.60;;;;;;;-6.39;77.56;97283.22;1756036;79;22040;-74
2021/01/28 08:15:44;;;;;;;183.70;80.50;;;;;;;-6.31;77.65;97281.77;1764378;80;21499;-74
2021/01/28 08:18:29;;;;;;;175.87;68.28;;;;;;;-6.20;77.64;97273.32;1785912;79;21571;-74
2021/01/28 08:21:20;;;;;;;188.55;74.50;;;;;;;-6.18;77.28;97270.48;1785514;80;21519;-74
2021/01/28 08:23:47;;;;;;;180.78;73.25;;;;;;;-6.04;77.70;97262.48;1785838;79;21138;-74
2021/01/28 08:26:31;;;;;;;170.92;67.47;;;;;;;-5.89;77.69;97262.34;1785828;80;21234;-73
2021/01/28 08:29:14;;;;;;;144.07;52.08;;;;;;;-5.73;77.52;97265.97;1785756;79;21086;-74
2021/01/28 08:31:55;;;;;;;139.72;57.65;;;;;;;-5.48;77.39;97265.48;1785850;80;21487;-74
2021/01/28 08:34:26;;;;;;;104.17;43.58;;;;;;;-5.28;76.92;97255.02;1785862;79;21086;-74
2021/01/28 08:37:03;;;;;;;146.25;57.67;;;;;;;-5.04;76.72;97259.77;1785839;80;21061;-74
2021/01/28 08:39:32;;;;;;;128.87;55.98;;;;;;;-4.84;76.63;97253.20;1785520;79;21192;-74
2021/01/28 08:42:14;;;;;;;151.00;74.53;;;;;;;-4.70;76.06;97250.89;1785269;79;21574;-74
2021/01/28 08:44:43;;;;;;;147.30;57.45;;;;;;;-4.54;76.21;97249.66;1785367;79;21122;-74
2021/01/28 08:47:25;;;;;;;142.72;55.38;;;;;;;-4.33;75.96;97247.34;1785280;80;21054;-74
2021/01/28 08:50:06;;;;;;;140.03;59.40;;;;;;;-4.16;75.68;97245.09;1785413;79;21404;-74
2021/01/28 08:52:33;;;;;;;129.50;55.80;;;;;;;-4.02;75.41;97247.50;1785276;79;22070;-75
2021/01/28 08:54:59;;;;;;;86.00;43.13;;;;;;;-3.86;75.43;97243.61;1754991;80;21135;-73
2021/01/28 08:57:26;;;;;;;89.77;40.73;;;;;;;-3.74;74.65;97247.78;1730233;80;21041;-73
2021/01/28 09:00:00;;;;;;;82.72;39.63;;;;;;;-3.75;72.48;97246.97;1785253;79;21043;-74
2021/01/28 09:02:29;;;;;;;89.95;41.02;;;;;;;-3.58;73.75;97245.19;1785303;80;21095;-74
2021/01/28 09:05:18;;;;;;;91.12;42.45;;;;;;;-3.36;74.65;97243.06;1785273;79;21228;-74
2021/01/28 09:07:57;;;;;;;80.92;40.35;;;;;;;-3.20;74.38;97243.39;1755313;80;21646;-74
2021/01/28 09:10:40;;;;;;;84.42;40.70;;;;;;;-2.96;74.08;97221.97;1785398;80;21067;-75
2021/01/28 09:13:29;;;;;;;66.10;32.75;;;;;;;-2.78;73.47;97230.53;1785310;79;21054;-74
2021/01/28 09:16:15;;;;;;;77.82;38.98;;;;;;;-2.44;72.81;97223.14;1785291;80;21062;-74
2021/01/28 09:18:44;;;;;;;80.32;34.67;;;;;;;-2.13;71.90;97229.73;1754744;80;21183;-73
2021/01/28 09:21:19;;;;;;;57.43;27.65;;;;;;;-1.78;69.96;97218.05;1785356;79;20988;-74
2021/01/28 09:24:26;;;;;;;80.20;43.48;;;;;;;-1.66;69.61;97218.12;1785269;79;21441;-74
2021/01/28 09:27:09;;;;;;;75.00;34.95;;;;;;;-1.47;71.28;97207.77;1785227;80;21098;-75
2021/01/28 09:29:40;;;;;;;91.40;42.90;;;;;;;-1.20;70.64;97196.80;1774375;80;21420;-74
2021/01/28 09:32:15;;;;;;;93.87;44.55;;;;;;;-1.02;70.58;97182.69;1785209;80;21182;-74
2021/01/28 09:34:41;;;;;;;65.70;32.30;;;;;;;-0.98;68.35;97188.64;1781062;79;21027;-74
2021/01/28 09:37:17;;;;;;;64.05;29.42;;;;;;;-0.88;67.69;97182.25;1785287;80;21137;-73
2021/01/28 09:39:52;;;;;;;81.25;40.28;;;;;;;-0.66;68.78;97183.06;1785275;79;21032;-74
2021/01/28 09:42:33;;;;;;;59.53;30.32;;;;;;;-0.67;66.78;97177.45;1785247;80;21926;-73
2021/01/28 09:45:21;;;;;;;67.17;32.70;;;;;;;-0.55;69.23;97173.47;1785210;79;21189;-75
2021/01/28 09:47:53;;;;;;;58.25;33.05;;;;;;;-0.44;70.07;97161.50;1785195;79;21145;-74
2021/01/28 09:50:20;;;;;;;78.52;32.60;;;;;;;-0.38;68.70;97152.60;1785200;80;21516;-74
2021/01/28 09:52:47;;;;;;;80.85;36.80;;;;;;;-0.23;67.18;97148.68;1785150;80;21110;-74
2021/01/28 09:55:24;;;;;;;97.45;40.80;;;;;;;-0.15;64.85;97140.34;1785256;79;21079;-74
2021/01/28 09:57:51;;;;;;;117.35;43.00;;;;;;;0.05;68.64;97140.78;1784607;79;21148;-75
2021/01/28 10:00:20;;;;;;;103.85;45.05;;;;;;;0.10;67.36;97129.44;1785261;80;21130;-75
2021/01/28 10:03:03;;;;;;;69.90;35.45;;;;;;;0.11;68.41;97127.86;1785378;80;21153;-75
2021/01/28 10:05:31;;;;;;;62.67;30.95;;;;;;;0.14;67.21;97118.58;1758735;80;21091;-74
2021/01/28 10:07:58;;;;;;;51.53;24.65;;;;;;;0.18;66.53;97111.75;1785348;79;21098;-73
2021/01/28 10:10:31;;;;;;;67.22;33.85;;;;;;;0.35;68.07;97103.83;1785199;80;21182;-73
2021/01/28 10:13:01;;;;;;;58.30;32.58;;;;;;;0.32;67.89;97089.63;1785191;79;21484;-75
2021/01/28 10:15:27;;;;;;;62.50;31.15;;;;;;;0.50;68.16;97092.11;1785239;80;20960;-75
2021/01/28 10:17:55;;;;;;;52.88;27.42;;;;;;;0.63;67.28;97078.50;1785136;79;21075;-75
2021/01/28 10:20:22;;;;;;;40.52;19.77;;;;;;;0.71;67.60;97071.45;1785203;80;21058;-74
2021/01/28 10:22:48;;;;;;;33.38;19.32;;;;;;;0.74;63.86;97080.30;1785162;79;22080;-75
2021/01/28 10:25:16;;;;;;;40.92;23.70;;;;;;;0.95;65.85;97075.34;1785129;80;21110;-75
2021/01/28 10:27:42;;;;;;;26.70;16.95;;;;;;;1.17;65.71;97071.41;1785032;79;21155;-75
2021/01/28 10:30:10;;;;;;;27.32;14.00;;;;;;;1.20;64.59;97058.91;1785183;79;21122;-75
2021/01/28 10:32:36;;;;;;;27.32;15.68;;;;;;;1.08;63.00;97059.00;1785259;80;21103;-75
2021/01/28 10:35:03;;;;;;;33.35;18.23;;;;;;;1.32;66.00;97054.31;1785171;79;21289;-75
2021/01/28 10:37:30;;;;;;;51.15;26.25;;;;;;;1.51;65.84;97056.19;1785117;80;21082;-75
2021/01/28 10:39:56;;;;;;;35.83;19.57;;;;;;;1.55;65.29;97056.80;1785163;79;21027;-75
2021/01/28 10:42:31;;;;;;;38.60;18.10;;;;;;;1.52;64.03;97053.27;1785211;80;21130;-75
2021/01/28 10:44:59;;;;;;;59.35;37.25;;;;;;;1.57;65.10;97054.69;1785213;79;21015;-75
2021/01/28 10:47:25;;;;;;;31.93;17.52;;;;;;;1.34;63.74;97040.19;1785084;80;21191;-75
2021/01/28 10:49:51;;;;;;;129.05;63.58;;;;;;;1.48;64.91;97048.14;1785096;79;20917;-75
2021/01/28 10:52:17;;;;;;;33.85;18.92;;;;;;;1.61;64.13;97042.45;1785305;80;21522;-75
2021/01/28 10:54:43;;;;;;;75.70;38.92;;;;;;;1.76;65.10;97036.52;1785127;79;21039;-75
2021/01/28 10:57:09;;;;;;;105.07;56.70;;;;;;;1.77;64.82;97039.98;1785279;80;21137;-74
2021/01/28 10:59:36;;;;;;;54.03;27.62;;;;;;;1.85;64.79;97031.55;1785144;79;21232;-75
2021/01/28 11:02:02;;;;;;;32.25;19.65;;;;;;;2.06;65.04;97026.75;1785181;79;21126;-75
2021/01/28 11:04:30;;;;;;;20.43;10.08;;;;;;;2.27;65.20;97003.72;1785149;79;21111;-75
2021/01/28 11:06:56;;;;;;;21.15;10.40;;;;;;;2.37;64.58;96993.13;1785105;80;21094;-75
2021/01/28 11:09:22;;;;;;;18.10;10.88;;;;;;;2.52;64.65;96990.61;1785245;79;21031;-75
2021/01/28 11:11:48;;;;;;;19.35;10.43;;;;;;;2.67;65.16;96973.91;1785168;80;21191;-75
2021/01/28 11:14:15;;;;;;;31.48;17.42;;;;;;;2.81;65.24;96972.94;1785175;79;21051;-73
2021/01/28 11:16:41;;;;;;;27.00;14.23;;;;;;;2.91;64.86;96972.23;1785175;80;21146;-72
2021/01/28 11:19:07;;;;;;;18.27;10.35;;;;;;;2.99;64.81;96962.36;1785108;79;21070;-72
2021/01/28 11:21:34;;;;;;;20.50;11.12;;;;;;;3.10;64.61;96972.10;1785159;80;21095;-72
2021/01/28 11:24:00;;;;;;;16.77;9.98;;;;;;;3.07;64.86;96961.35;1785114;79;22137;-72
2021/01/28 11:26:26;;;;;;;52.43;29.85;;;;;;;3.10;63.71;96957.38;1785193;80;21150;-72
2021/01/28 11:28:52;;;;;;;15.25;6.85;;;;;;;2.99;64.64;96965.88;1784979;78;21408;-72
2021/01/28 11:31:18;;;;;;;13.90;8.63;;;;;;;3.11;63.80;96963.81;1785152;80;21114;-72
2021/01/28 11:33:44;;;;;;;14.53;7.50;;;;;;;3.00;64.10;96952.77;1785126;79;21396;-72
2021/01/28 11:36:11;;;;;;;17.92;9.40;;;;;;;3.04;64.74;96949.03;1785260;79;21192;-72
2021/01/28 11:38:37;;;;;;;14.43;7.72;;;;;;;3.11;64.71;96947.75;1785138;79;21140;-72
2021/01/28 11:41:04;;;;;;;13.18;7.50;;;;;;;2.97;62.95;96941.75;1785225;80;21539;-72
2021/01/28 11:43:32;;;;;;;21.02;10.90;;;;;;;3.17;63.95;96935.74;1785076;79;21475;-74
2021/01/28 11:45:58;;;;;;;17.92;9.50;;;;;;;3.25;64.18;96935.27;1785184;80;21515;-74